CheckWX is a tool to help pilots better visualize weather data.  It is not intended as a substitute for an official pre-flight weather briefing.

04:01:33 UTC

KAPA METAR
Centennial Airport
Denver, Colorado, USA
Current

9 mins ago

KAPA 250353Z 21004KT 10SM FEW140 14/02 A2997 RMK AO2 SLP098 T01390017
Observed
Apr-25 @ 03:53 UTC
Wind
  • 210° at 4 KTS
Visibility
10 SM
Flight Rules
VFR
Cloud Levels
  • Few at 14,000' AGL
Temperature
14°C / 57°F
Dewpoint
C / 36°F
Humidity
44%
Altimeter
29.97" Hg
Pressure
1014.92 hPa
Previous

1 hour ago

KAPA 250253Z 20005KT 10SM FEW130 14/02 A2996 RMK AO2 SLP097 T01440017 53007
Observed
Apr-25 @ 02:53 UTC
Wind
  • 200° at 5 KTS
Visibility
10 SM
Flight Rules
VFR
Cloud Levels
  • Few at 13,000' AGL
Temperature
14°C / 57°F
Dewpoint
C / 36°F
Humidity
44%
Altimeter
29.96" Hg
Pressure
1014.52 hPa
Previous

2 hours ago

KAPA 250153Z 14003KT 10SM FEW100 FEW140 FEW220 18/01 A2994 RMK AO2 SLP088 T01780006
Observed
Apr-25 @ 01:53 UTC
Wind
  • 140° at 3 KTS
Visibility
10 SM
Flight Rules
VFR
Cloud Levels
  • Few at 10,000' AGL
  • Few at 14,000' AGL
  • Few at 22,000' AGL
Temperature
18°C / 64°F
Dewpoint
C / 34°F
Humidity
32%
Altimeter
29.94" Hg
Pressure
1013.92 hPa